Time;durP1;ratioP1;P1;durP2;ratioP2;P2;SDS_P1;SDS_P2;PMS_P1;PMS_P2;Temp;Humidity;BMP_temperature;BMP_pressure;BME280_temperature;BME280_humidity;BME280_pressure;Samples;Min_cycle;Max_cycle;Signal;HPM_P1;HPM_P2
2022/06/18 00:00:38;;;;;;;6.75;5.47;;;;;;;12.99;70.28;100797.34;2109222;83;21033;-67
2022/06/18 00:03:40;;;;;;;8.40;4.80;;;;;;;13.01;70.45;100794.52;2107491;83;21026;-67
2022/06/18 00:06:58;;;;;;;5.58;4.70;;;;;;;12.97;70.49;100794.00;2107359;83;21045;-67
2022/06/18 00:10:04;;;;;;;6.33;4.47;;;;;;;12.89;70.66;100791.83;2109224;83;21034;-67
2022/06/18 00:16:39;;;;;;;5.72;4.37;;;;;;;12.89;70.70;100786.50;2106063;83;21089;-68
2022/06/18 00:19:42;;;;;;;10.53;4.90;;;;;;;12.94;70.80;100782.34;2108272;83;21498;-67
2022/06/18 00:22:48;;;;;;;6.00;4.28;;;;;;;12.95;70.68;100781.84;2112892;83;21030;-67
2022/06/18 00:25:52;;;;;;;6.62;4.50;;;;;;;12.92;70.58;100780.37;2104454;83;21074;-67
2022/06/18 00:28:54;;;;;;;7.50;5.08;;;;;;;12.88;70.72;100776.86;2101399;83;21751;-67
2022/06/18 00:31:57;;;;;;;9.95;4.53;;;;;;;12.86;70.71;100781.51;2097885;83;21064;-68
2022/06/18 00:34:59;;;;;;;6.60;4.90;;;;;;;12.85;70.78;100777.19;2100899;83;21115;-67
2022/06/18 00:38:04;;;;;;;10.78;5.15;;;;;;;12.81;71.12;100769.19;2103442;83;20994;-67
2022/06/18 00:41:08;;;;;;;7.47;4.45;;;;;;;12.77;71.46;100776.17;2106748;83;21327;-67
2022/06/18 00:44:31;;;;;;;8.88;5.00;;;;;;;12.73;71.31;100777.52;2106673;83;20990;-67
2022/06/18 00:47:58;;;;;;;10.30;5.53;;;;;;;12.74;71.36;100780.50;2102404;83;21095;-68
2022/06/18 00:51:17;;;;;;;6.90;5.50;;;;;;;12.74;71.40;100775.68;2101061;83;21037;-67
2022/06/18 00:54:30;;;;;;;11.38;6.25;;;;;;;12.73;71.63;100772.19;2104722;83;21052;-68
2022/06/18 00:58:09;;;;;;;10.25;5.55;;;;;;;12.67;71.80;100771.52;2103953;83;21612;-67
2022/06/18 01:01:21;;;;;;;6.03;5.35;;;;;;;12.66;72.06;100767.17;2075268;83;21045;-68
2022/06/18 01:04:31;;;;;;;12.63;6.60;;;;;;;12.67;72.26;100764.01;2106994;83;20994;-67
2022/06/18 01:07:39;;;;;;;8.80;5.90;;;;;;;12.70;72.41;100763.70;2106942;83;20982;-68
2022/06/18 01:10:48;;;;;;;11.48;6.60;;;;;;;12.71;72.62;100764.86;2106564;83;20983;-68
2022/06/18 01:13:51;;;;;;;10.98;6.20;;;;;;;12.75;72.66;100765.35;2104285;83;21045;-67
2022/06/18 01:16:59;;;;;;;8.10;6.67;;;;;;;12.74;72.80;100767.19;2107331;83;21064;-68
2022/06/18 01:20:06;;;;;;;7.70;6.55;;;;;;;12.78;72.86;100765.02;2107641;83;21069;-68
2022/06/18 01:23:19;;;;;;;6.97;6.25;;;;;;;12.85;72.95;100761.22;2106866;83;21101;-68
2022/06/18 01:26:21;;;;;;;5.90;5.17;;;;;;;12.89;73.10;100758.03;2106815;83;21008;-68
2022/06/18 01:29:26;;;;;;;12.33;7.03;;;;;;;12.91;73.17;100760.55;2102897;83;21006;-68
2022/06/18 01:32:28;;;;;;;8.50;5.58;;;;;;;12.94;73.32;100758.38;2101295;83;21058;-69
2022/06/18 01:35:31;;;;;;;8.20;6.08;;;;;;;12.98;73.34;100746.91;2106094;83;21024;-68
2022/06/18 01:38:44;;;;;;;8.43;6.27;;;;;;;13.03;73.62;100751.71;2104980;83;21569;-68
2022/06/18 01:41:54;;;;;;;7.17;5.97;;;;;;;13.04;73.70;100746.73;2104561;83;21032;-68
2022/06/18 01:45:08;;;;;;;15.45;6.67;;;;;;;13.07;73.75;100743.73;2099766;83;21002;-68
2022/06/18 01:48:31;;;;;;;8.78;5.90;;;;;;;13.13;73.76;100747.88;2104648;83;20986;-68
2022/06/18 01:51:39;;;;;;;7.62;6.35;;;;;;;13.17;73.78;100743.04;2103978;83;21568;-68
2022/06/18 01:54:54;;;;;;;7.97;6.33;;;;;;;13.19;73.75;100739.21;2108179;83;21047;-69
2022/06/18 01:58:04;;;;;;;8.88;6.25;;;;;;;13.24;73.72;100734.72;2107460;83;20942;-68
2022/06/18 02:01:09;;;;;;;;;;;;;;;13.28;73.75;100732.57;2099983;83;21076;-68
2022/06/18 02:04:13;;;;;;;9.08;5.97;;;;;;;13.30;73.99;100731.91;2107095;83;20108;-68
2022/06/18 02:07:18;;;;;;;7.95;6.25;;;;;;;13.32;74.05;100730.73;2105580;83;21033;-68
2022/06/18 02:10:28;;;;;;;7.90;6.53;;;;;;;13.33;74.02;100727.06;2107191;83;21021;-67
2022/06/18 02:13:39;;;;;;;7.42;6.35;;;;;;;13.36;74.27;100716.56;2093443;83;21087;-68
2022/06/18 02:16:45;;;;;;;10.32;7.35;;;;;;;13.39;74.37;100711.72;2047809;84;21030;-70
2022/06/18 02:19:59;;;;;;;9.28;6.40;;;;;;;13.44;74.51;100704.05;2048901;84;21023;-68
2022/06/18 02:23:01;;;;;;;9.90;6.60;;;;;;;13.49;74.57;100710.69;2050360;84;21079;-68
2022/06/18 02:26:06;;;;;;;9.30;7.10;;;;;;;13.52;74.60;100709.04;2047979;84;21440;-68
2022/06/18 02:29:23;;;;;;;12.07;7.08;;;;;;;13.52;74.61;100711.70;2054953;84;21120;-68
2022/06/18 02:32:30;;;;;;;7.22;5.72;;;;;;;13.55;74.68;100720.69;2056567;84;21043;-68
2022/06/18 02:35:33;;;;;;;9.68;6.12;;;;;;;13.60;74.69;100722.31;2045957;84;20997;-68
2022/06/18 02:38:35;;;;;;;9.73;6.22;;;;;;;13.60;74.77;100724.98;2045711;84;20980;-67
2022/06/18 02:41:40;;;;;;;10.88;6.62;;;;;;;13.61;74.89;100723.48;2046747;84;20985;-67
2022/06/18 02:44:46;;;;;;;8.55;6.47;;;;;;;13.63;74.94;100722.00;2051500;84;21067;-68
2022/06/18 02:47:52;;;;;;;9.30;6.75;;;;;;;13.66;75.05;100721.66;2052152;84;21098;-68
2022/06/18 02:50:58;;;;;;;8.55;6.22;;;;;;;13.70;74.98;100720.80;2051057;83;21562;-68
2022/06/18 02:54:02;;;;;;;9.40;6.42;;;;;;;13.74;75.00;100720.77;2044124;84;21073;-68
2022/06/18 02:57:09;;;;;;;10.78;6.92;;;;;;;13.78;75.14;100720.27;2049764;84;21032;-68
2022/06/18 03:00:13;;;;;;;9.43;5.97;;;;;;;13.82;75.15;100714.07;2051117;84;21043;-68
2022/06/18 03:03:17;;;;;;;11.33;6.95;;;;;;;13.84;75.13;100718.73;2049352;84;21070;-68
2022/06/18 03:06:23;;;;;;;10.40;6.90;;;;;;;13.86;75.05;100712.73;2047107;84;21070;-68
2022/06/18 03:09:27;;;;;;;14.13;6.50;;;;;;;13.86;74.99;100710.06;2053040;84;21503;-68
2022/06/18 03:12:29;;;;;;;7.33;6.08;;;;;;;13.87;75.01;100712.55;2050383;84;20988;-67
2022/06/18 03:15:32;;;;;;;9.30;6.42;;;;;;;13.90;75.05;100712.20;2087659;83;21045;-67
2022/06/18 03:18:38;;;;;;;9.00;6.30;;;;;;;13.93;75.16;100708.34;2098945;83;21022;-68
2022/06/18 03:21:47;;;;;;;9.68;6.83;;;;;;;13.94;75.21;100711.37;2097329;83;21001;-68
2022/06/18 03:24:49;;;;;;;12.23;6.83;;;;;;;13.98;75.33;100709.17;2101477;83;20985;-67
2022/06/18 03:27:51;;;;;;;9.75;6.92;;;;;;;14.02;75.33;100713.14;2098845;83;21025;-67
2022/06/18 03:30:53;;;;;;;9.20;6.78;;;;;;;14.04;75.38;100702.63;2103531;83;21019;-68
2022/06/18 03:33:56;;;;;;;9.53;7.35;;;;;;;14.09;75.39;100710.94;2102186;83;21096;-68
2022/06/18 03:36:58;;;;;;;9.05;6.60;;;;;;;14.15;75.48;100706.74;2102199;83;21049;-68
2022/06/18 03:39:59;;;;;;;11.22;6.65;;;;;;;14.21;75.55;100707.87;2093987;83;21367;-68
2022/06/18 03:43:05;;;;;;;10.30;6.28;;;;;;;14.27;75.69;100713.33;2091145;83;21023;-69
2022/06/18 03:46:10;;;;;;;8.65;6.58;;;;;;;14.34;75.85;100709.47;2095512;83;21073;-69
2022/06/18 03:49:28;;;;;;;13.18;6.83;;;;;;;14.42;76.12;100706.75;2100587;83;21326;-68
2022/06/18 03:52:31;;;;;;;9.10;6.42;;;;;;;14.52;76.25;100702.52;2098124;83;21093;-69
2022/06/18 03:55:33;;;;;;;8.90;6.05;;;;;;;14.62;76.21;100699.62;2096855;83;21054;-68
2022/06/18 03:58:35;;;;;;;11.30;7.20;;;;;;;14.72;76.33;100701.53;2092995;83;21532;-68
2022/06/18 04:01:40;;;;;;;10.60;6.78;;;;;;;14.80;76.20;100696.95;2099133;83;21044;-67
2022/06/18 04:04:41;;;;;;;10.00;6.72;;;;;;;14.91;76.52;100697.53;2101217;83;21108;-67
2022/06/18 04:07:44;;;;;;;8.20;6.55;;;;;;;15.02;76.65;100703.78;2096373;83;21027;-68
2022/06/18 04:11:07;;;;;;;11.75;7.50;;;;;;;15.11;76.70;100703.19;2101171;83;21043;-68
2022/06/18 04:14:08;;;;;;;9.20;7.50;;;;;;;15.20;76.74;100696.27;2092622;83;21224;-67
2022/06/18 04:17:16;;;;;;;9.55;6.90;;;;;;;15.26;76.46;100694.70;2085674;83;21065;-68
2022/06/18 04:20:23;;;;;;;9.48;6.95;;;;;;;15.35;76.39;100700.79;2085674;83;22332;-68
2022/06/18 04:23:25;;;;;;;10.38;6.33;;;;;;;15.45;76.33;100694.13;2084052;83;21438;-67
2022/06/18 04:26:35;;;;;;;9.95;6.67;;;;;;;15.58;76.21;100692.16;2087621;83;21068;-68
2022/06/18 04:29:38;;;;;;;8.33;6.63;;;;;;;15.72;76.26;100695.05;2087001;83;21550;-67
2022/06/18 04:41:33;;;;;;;9.03;6.17;;;;;;;16.11;75.29;100695.52;2051769;84;22016;-66
2022/06/18 04:44:38;;;;;;;8.05;6.30;;;;;;;16.31;75.17;100696.24;2041534;85;21114;-65
2022/06/18 04:47:45;;;;;;;11.15;5.60;;;;;;;16.43;74.96;100687.19;2045493;85;21576;-73
2022/06/18 04:50:49;;;;;;;8.25;5.62;;;;;;;16.52;74.55;100684.17;2049936;85;21057;-67
2022/06/18 04:53:56;;;;;;;11.28;6.12;;;;;;;16.67;74.54;100680.11;2046153;84;21150;-65
2022/06/18 04:56:59;;;;;;;7.20;5.58;;;;;;;16.92;74.58;100673.85;2047803;85;21056;-66
2022/06/18 05:00:07;;;;;;;5.67;4.47;;;;;;;17.48;74.55;100673.80;2033275;85;21179;-66
2022/06/18 05:03:21;;;;;;;9.95;4.78;;;;;;;17.81;73.09;100675.81;2050767;84;21135;-64
2022/06/18 05:06:33;;;;;;;10.55;4.25;;;;;;;17.95;72.30;100676.69;2053497;85;21050;-66
2022/06/18 05:09:37;;;;;;;8.13;4.58;;;;;;;18.23;71.99;100676.56;2008080;85;21001;-67
2022/06/18 05:12:48;;;;;;;6.08;3.98;;;;;;;18.68;71.51;100677.34;2046750;85;21119;-65
2022/06/18 05:15:55;;;;;;;7.20;4.33;;;;;;;19.32;71.02;100661.08;2048836;85;21078;-66
2022/06/18 05:18:57;;;;;;;6.75;3.55;;;;;;;19.65;68.83;100663.64;2045115;84;21436;-66
2022/06/18 05:22:00;;;;;;;7.35;4.35;;;;;;;19.69;67.97;100658.18;2043195;85;21020;-69
2022/06/18 05:25:09;;;;;;;7.25;4.05;;;;;;;19.67;68.14;100657.03;2048829;84;21074;-66
2022/06/18 05:28:15;;;;;;;6.87;3.95;;;;;;;19.79;67.41;100646.94;2042506;85;21070;-66
2022/06/18 05:31:17;;;;;;;6.05;3.65;;;;;;;19.98;67.41;100647.36;2050700;85;21079;-66
2022/06/18 05:34:21;;;;;;;8.75;3.65;;;;;;;20.13;66.94;100649.75;2045035;84;21055;-67
2022/06/18 05:37:30;;;;;;;7.22;3.30;;;;;;;20.33;66.84;100649.65;2048358;84;21087;-65
2022/06/18 05:40:35;;;;;;;4.73;3.60;;;;;;;20.52;66.48;100647.83;2047639;84;21121;-65
2022/06/18 05:43:37;;;;;;;7.42;3.45;;;;;;;20.69;65.87;100646.27;2036805;86;21091;-70
2022/06/18 05:46:40;;;;;;;5.58;3.35;;;;;;;20.86;66.01;100642.48;1962584;89;21054;-70
2022/06/18 05:49:45;;;;;;;3.95;3.00;;;;;;;21.08;65.47;100642.90;1978083;88;21117;-68
2022/06/18 05:52:51;;;;;;;5.87;3.10;;;;;;;21.23;65.09;100651.97;2020343;86;21531;-70
2022/06/18 05:55:54;;;;;;;5.33;2.77;;;;;;;21.33;64.53;100648.23;2013755;86;21026;-71
2022/06/18 05:59:12;;;;;;;9.08;3.20;;;;;;;21.38;63.68;100641.68;2022077;86;21082;-70
2022/06/18 06:02:19;;;;;;;4.67;3.25;;;;;;;21.41;63.69;100638.53;2018269;86;21641;-71
2022/06/18 06:05:21;;;;;;;4.28;3.00;;;;;;;21.49;63.42;100627.42;2022140;86;21591;-69
2022/06/18 06:08:24;;;;;;;5.12;2.70;;;;;;;21.48;63.03;100641.14;2021357;86;21070;-72
2022/06/18 06:11:32;;;;;;;6.03;2.95;;;;;;;21.55;62.81;100638.38;2019625;86;20962;-72
2022/06/18 06:14:41;;;;;;;6.35;2.37;;;;;;;21.62;62.87;100644.50;2017920;86;21129;-72
2022/06/18 06:17:44;;;;;;;5.03;2.60;;;;;;;21.71;62.20;100638.58;2021881;86;20967;-70
2022/06/18 06:20:50;;;;;;;5.65;2.47;;;;;;;21.81;61.96;100638.55;2019460;86;21530;-69
2022/06/18 06:23:52;;;;;;;11.50;2.98;;;;;;;21.91;62.05;100630.73;2037129;85;21048;-70
2022/06/18 06:26:54;;;;;;;9.03;3.10;;;;;;;22.02;61.77;100637.22;2039870;85;20997;-73
2022/06/18 06:29:58;;;;;;;5.42;3.42;;;;;;;22.17;61.70;100634.93;2042670;85;21125;-70
2022/06/18 06:33:00;;;;;;;4.83;2.77;;;;;;;22.33;61.39;100637.01;2035778;85;21858;-68
2022/06/18 06:36:05;;;;;;;7.00;2.70;;;;;;;22.48;61.30;100635.73;2041800;85;21545;-70
2022/06/18 06:39:05;;;;;;;4.20;2.45;;;;;;;22.59;60.57;100628.98;2023338;86;21062;-69
2022/06/18 06:42:09;;;;;;;4.40;2.45;;;;;;;22.66;60.44;100618.05;2036596;86;21022;-68
2022/06/18 06:45:21;;;;;;;4.87;2.40;;;;;;;22.76;60.20;100617.48;2038089;86;21095;-69
2022/06/18 06:48:32;;;;;;;3.87;2.70;;;;;;;22.80;59.71;100611.34;2036161;85;20981;-67
2022/06/18 06:51:36;;;;;;;2.67;2.40;;;;;;;22.73;58.74;100611.19;1998867;86;21048;-68
2022/06/18 06:54:38;;;;;;;4.50;2.47;;;;;;;22.73;58.46;100613.36;2036459;85;21027;-72
2022/06/18 06:57:43;;;;;;;2.12;2.00;;;;;;;22.94;58.22;100609.76;2065608;84;21042;-70
2022/06/18 07:00:49;;;;;;;4.58;2.27;;;;;;;23.35;58.18;100597.96;2064659;84;21526;-68
2022/06/18 07:03:51;;;;;;;5.92;2.22;;;;;;;24.00;56.85;100596.79;2062922;85;21066;-68
2022/06/18 07:06:56;;;;;;;5.95;2.02;;;;;;;24.51;55.22;100596.84;2061649;84;21027;-68
2022/06/18 07:09:57;;;;;;;4.62;1.82;;;;;;;24.96;55.42;100588.55;2059007;85;21517;-69
2022/06/18 07:12:59;;;;;;;2.12;1.80;;;;;;;25.58;54.32;100593.42;2061002;84;21107;-68
2022/06/18 07:16:04;;;;;;;4.60;2.20;;;;;;;25.93;51.86;100582.95;2063049;84;21502;-66
2022/06/18 07:19:09;;;;;;;3.17;1.87;;;;;;;26.24;49.22;100573.68;2061058;84;20989;-67
2022/06/18 07:22:13;;;;;;;4.45;2.20;;;;;;;26.51;50.66;100568.76;2060274;85;21134;-68
2022/06/18 07:25:16;;;;;;;3.42;1.70;;;;;;;26.91;50.17;100569.53;2060226;85;21511;-69
2022/06/18 07:28:18;;;;;;;4.80;1.92;;;;;;;27.17;49.17;100567.80;2063330;84;21023;-69
2022/06/18 07:31:33;;;;;;;2.67;1.52;;;;;;;27.48;49.51;100563.80;2060093;85;21085;-68
2022/06/18 07:34:37;;;;;;;3.95;1.92;;;;;;;27.77;48.75;100567.42;2063521;85;21066;-69
2022/06/18 07:37:39;;;;;;;3.12;2.10;;;;;;;27.79;47.57;100560.64;2060040;84;21544;-67
2022/06/18 07:40:51;;;;;;;3.83;1.70;;;;;;;27.60;45.51;100557.58;2029258;85;21055;-68
2022/06/18 07:43:58;;;;;;;7.80;1.90;;;;;;;27.39;46.83;100554.52;1998214;85;21030;-69
2022/06/18 07:47:03;;;;;;;3.22;1.62;;;;;;;27.48;46.62;100559.19;1999902;86;21086;-69
2022/06/18 07:50:08;;;;;;;3.95;2.05;;;;;;;27.62;46.87;100555.41;2001683;86;21030;-69
2022/06/18 07:53:17;;;;;;;6.97;1.95;;;;;;;27.68;46.73;100556.23;1998533;86;21120;-67
2022/06/18 07:56:20;;;;;;;6.50;1.80;;;;;;;27.71;46.52;100555.69;2001704;86;21067;-68
2022/06/18 07:59:25;;;;;;;8.10;2.35;;;;;;;28.08;45.52;100561.48;2003087;86;21033;-68
2022/06/18 08:02:26;;;;;;;4.40;1.52;;;;;;;28.43;45.11;100555.20;1995200;86;21669;-68
2022/06/18 08:05:28;;;;;;;5.78;1.77;;;;;;;28.76;44.97;100555.13;1996766;86;21022;-68
2022/06/18 08:08:30;;;;;;;1.60;1.50;;;;;;;28.94;43.70;100552.89;2005150;88;21058;-69
2022/06/18 08:11:32;;;;;;;4.25;1.80;;;;;;;28.97;43.51;100554.51;1994841;86;21355;-70
2022/06/18 08:14:36;;;;;;;2.70;1.70;;;;;;;28.75;43.51;100556.24;1999990;86;20988;-69
2022/06/18 08:17:38;;;;;;;4.25;2.00;;;;;;;28.78;43.41;100545.31;1995043;86;21045;-70
2022/06/18 08:20:41;;;;;;;4.45;1.70;;;;;;;29.05;43.03;100547.69;1998757;87;21089;-70
2022/06/18 08:23:45;;;;;;;6.20;1.65;;;;;;;29.35;43.01;100550.83;1999692;86;21549;-69
2022/06/18 08:26:50;;;;;;;2.40;1.60;;;;;;;29.29;42.66;100547.05;1998276;86;21049;-69
2022/06/18 08:29:55;;;;;;;2.80;1.50;;;;;;;29.67;42.28;100546.28;1999956;87;21480;-73
2022/06/18 08:32:57;;;;;;;3.47;1.65;;;;;;;30.04;41.38;100546.83;1979897;87;21017;-69
2022/06/18 08:36:06;;;;;;;2.17;1.80;;;;;;;30.35;41.30;100541.41;1983978;88;20981;-71
2022/06/18 08:39:11;;;;;;;6.15;1.57;;;;;;;30.64;40.35;100539.19;2001879;87;21045;-70
2022/06/18 08:42:34;;;;;;;5.15;2.02;;;;;;;30.78;39.52;100529.72;2051573;84;20999;-69
2022/06/18 08:45:44;;;;;;;5.50;1.47;;;;;;;30.95;39.94;100519.13;2059522;85;20976;-69
2022/06/18 08:49:15;;;;;;;1.62;1.10;;;;;;;31.36;39.41;100511.74;2067116;84;21411;-69
2022/06/18 08:52:57;;;;;;;5.58;1.60;;;;;;;31.51;38.56;100507.14;2054959;84;21046;-68
2022/06/18 08:56:10;;;;;;;3.02;1.35;;;;;;;30.87;37.41;100501.16;2062509;84;21083;-72
2022/06/18 08:59:38;;;;;;;3.20;1.20;;;;;;;30.68;36.83;100496.41;2067791;85;21007;-70
2022/06/18 09:02:45;;;;;;;1.92;1.20;;;;;;;30.70;37.72;100491.47;2071095;85;21087;-72
2022/06/18 09:06:01;;;;;;;2.95;1.57;;;;;;;30.56;37.67;100484.50;2063922;84;21633;-69
2022/06/18 09:09:17;;;;;;;5.35;1.07;;;;;;;30.60;37.10;100484.73;2063263;85;21027;-69
2022/06/18 09:12:47;;;;;;;3.72;1.20;;;;;;;30.77;36.93;100483.69;2063165;85;21024;-68
2022/06/18 09:15:57;;;;;;;1.07;0.93;;;;;;;31.21;36.66;100479.86;1985702;87;21070;-70
2022/06/18 09:19:01;;;;;;;;;;;;;;;31.38;35.80;100467.03;2016303;87;21104;-70
2022/06/18 09:22:17;;;;;;;1.20;1.12;;;;;;;31.56;35.50;100468.68;2011350;87;20109;-69
2022/06/18 09:25:17;;;;;;;4.50;0.90;;;;;;;31.76;35.26;100470.27;2014751;87;21099;-69
2022/06/18 09:28:33;;;;;;;3.42;1.10;;;;;;;32.00;34.64;100466.87;2012006;87;21029;-70
2022/06/18 09:31:51;;;;;;;4.75;1.12;;;;;;;32.17;33.80;100462.73;1988712;87;21124;-71
2022/06/18 09:35:04;;;;;;;2.02;1.00;;;;;;;32.07;32.28;100441.23;2002535;87;21084;-69
2022/06/18 09:38:29;;;;;;;4.50;1.35;;;;;;;32.07;32.28;100441.23;2012781;86;21014;-69
2022/06/18 09:41:38;;;;;;;2.02;1.27;;;;;;;32.31;33.37;100447.09;1988090;87;21105;-71
2022/06/18 09:44:59;;;;;;;5.10;1.12;;;;;;;32.44;32.52;100447.66;1968436;88;21512;-66
2022/06/18 09:48:02;;;;;;;4.58;1.20;;;;;;;32.35;31.84;100452.21;1972078;88;21075;-66
2022/06/18 09:51:12;;;;;;;3.12;1.10;;;;;;;32.35;32.11;100446.72;1976684;88;21037;-67
2022/06/18 09:54:17;;;;;;;3.37;1.10;;;;;;;32.56;31.59;100435.62;1972112;88;21123;-69
2022/06/18 09:57:23;;;;;;;3.27;1.10;;;;;;;32.73;32.03;100449.30;1972543;88;21076;-70
2022/06/18 10:00:29;;;;;;;3.22;1.20;;;;;;;32.64;30.22;100444.28;1973706;88;21857;-70
2022/06/18 10:07:03;;;;;;;0.85;0.85;;;;;;;32.35;29.56;100429.72;1982202;88;21049;-70
2022/06/18 10:10:13;;;;;;;3.70;0.93;;;;;;;32.25;29.92;100420.30;1977044;87;21030;-69
2022/06/18 10:13:19;;;;;;;1.82;1.00;;;;;;;32.25;29.45;100427.72;1974000;88;21070;-71
2022/06/18 10:17:05;;;;;;;3.05;1.20;;;;;;;32.38;29.85;100418.66;1961195;88;21547;-68
2022/06/18 10:20:35;;;;;;;1.50;1.00;;;;;;;32.62;30.41;100416.30;1977640;88;21661;-68
2022/06/18 10:24:04;;;;;;;1.17;1.07;;;;;;;32.68;29.50;100406.82;1974431;88;22306;-69
2022/06/18 10:27:35;;;;;;;2.10;0.90;;;;;;;32.51;30.10;100409.63;1974476;88;21104;-68
2022/06/18 10:31:00;;;;;;;4.25;1.20;;;;;;;32.37;30.17;100404.69;1956644;88;21160;-68
2022/06/18 10:34:20;;;;;;;1.90;1.15;;;;;;;32.51;29.36;100405.52;1966073;88;21005;-68
2022/06/18 10:38:05;;;;;;;1.15;0.90;;;;;;;32.75;29.46;100393.48;1959348;88;21459;-68
2022/06/18 10:41:31;;;;;;;1.57;1.10;;;;;;;33.00;29.54;100389.36;1977911;87;21076;-68
2022/06/18 10:45:01;;;;;;;3.90;1.15;;;;;;;33.28;29.59;100385.13;1990097;88;21020;-68
2022/06/18 10:48:16;;;;;;;1.35;1.02;;;;;;;33.14;28.88;100385.19;1985216;87;21112;-69
2022/06/18 10:51:21;;;;;;;1.27;1.07;;;;;;;33.06;28.94;100374.94;1992890;88;21606;-68
2022/06/18 10:54:34;;;;;;;1.15;0.98;;;;;;;32.92;29.53;100377.16;2010836;86;21028;-68
2022/06/18 10:57:59;;;;;;;4.37;0.98;;;;;;;32.82;29.01;100369.14;2034442;86;21547;-69
2022/06/18 11:07:01;;;;;;;1.30;0.75;;;;;;;32.92;29.17;100362.61;2043436;86;21017;-70
2022/06/18 11:10:06;;;;;;;1.72;1.00;;;;;;;32.99;29.64;100356.11;2002227;86;21371;-70
2022/06/18 11:13:16;;;;;;;5.75;1.05;;;;;;;32.84;28.95;100357.85;2005689;86;21127;-69
2022/06/18 11:25:05;;;;;;;2.52;1.05;;;;;;;32.80;29.84;100348.02;2010846;86;21125;-68
2022/06/18 11:28:39;;;;;;;3.77;1.35;;;;;;;32.75;29.07;100333.86;2027576;86;20978;-68
2022/06/18 11:31:49;;;;;;;1.20;1.10;;;;;;;32.56;29.64;100334.00;2027146;86;22098;-68
2022/06/18 11:35:02;;;;;;;5.67;0.90;;;;;;;32.60;29.06;100328.70;2030974;86;21055;-70
2022/06/18 11:38:18;;;;;;;2.95;1.40;;;;;;;32.53;29.81;100325.02;2034690;86;21046;-67
2022/06/18 11:41:45;;;;;;;2.12;0.98;;;;;;;32.39;28.56;100314.59;2026060;85;21117;-69
2022/06/18 11:45:04;;;;;;;1.42;0.80;;;;;;;32.42;29.03;100318.09;2019534;87;21065;-70
2022/06/18 11:48:37;;;;;;;2.27;1.02;;;;;;;32.32;28.10;100310.88;2023786;87;21754;-71
2022/06/18 11:51:55;;;;;;;1.90;0.80;;;;;;;32.20;29.10;100305.67;2015381;87;21085;-72
2022/06/18 11:55:21;;;;;;;2.70;1.10;;;;;;;32.23;29.19;100306.43;2020972;87;21001;-69
2022/06/18 11:58:44;;;;;;;2.58;0.70;;;;;;;32.36;29.16;100303.66;2014413;87;20988;-69
2022/06/18 12:01:54;;;;;;;6.03;1.07;;;;;;;32.26;28.98;100294.27;2018500;86;21015;-70
2022/06/18 12:05:03;;;;;;;1.47;0.95;;;;;;;32.36;29.42;100291.87;2020491;87;21022;-70
2022/06/18 12:08:05;;;;;;;;;;;;;;;32.53;28.87;100289.31;2022012;87;20984;-68
2022/06/18 12:11:26;;;;;;;1.80;0.85;;;;;;;32.48;29.20;100277.06;2019527;87;20161;-69
2022/06/18 12:14:39;;;;;;;2.65;1.00;;;;;;;32.64;28.99;100269.86;1993742;87;21016;-70
2022/06/18 12:18:12;;;;;;;1.07;0.80;;;;;;;32.69;29.43;100266.44;2020014;87;21524;-71
2022/06/18 12:21:44;;;;;;;1.85;0.75;;;;;;;32.59;29.13;100266.66;2020393;87;21030;-68
2022/06/18 12:25:22;;;;;;;3.58;1.07;;;;;;;32.38;29.17;100263.53;2020746;87;21057;-70
2022/06/18 12:28:32;;;;;;;1.85;1.00;;;;;;;32.30;28.41;100260.17;2007905;87;21478;-70
2022/06/18 12:31:42;;;;;;;1.35;1.25;;;;;;;32.00;29.43;100265.19;2020429;87;21128;-70
2022/06/18 12:34:52;;;;;;;1.02;0.90;;;;;;;31.84;29.22;100246.81;2015319;87;21073;-69
2022/06/18 12:38:39;;;;;;;1.62;1.22;;;;;;;31.82;29.55;100255.94;2020320;87;21032;-68
2022/06/18 12:42:04;;;;;;;2.90;1.07;;;;;;;31.91;29.03;100245.89;2026410;85;21072;-70
2022/06/18 12:45:30;;;;;;;2.75;1.35;;;;;;;31.71;29.21;100244.35;2044714;85;21074;-68
2022/06/18 12:48:52;;;;;;;2.85;1.15;;;;;;;31.61;29.38;100239.06;2048545;85;21636;-73
2022/06/18 12:52:11;;;;;;;4.28;1.30;;;;;;;31.69;29.95;100245.20;2050582;85;21547;-70
2022/06/18 12:55:24;;;;;;;1.70;1.00;;;;;;;31.76;30.11;100244.78;2046656;85;21043;-69
2022/06/18 12:58:57;;;;;;;1.12;0.82;;;;;;;31.80;29.67;100241.70;2047369;85;21101;-71
2022/06/18 13:02:21;;;;;;;3.02;1.00;;;;;;;31.75;29.54;100241.80;2048638;85;20972;-73
2022/06/18 13:05:48;;;;;;;3.98;1.10;;;;;;;31.78;28.87;100232.95;2025287;86;22405;-71
2022/06/18 13:09:01;;;;;;;1.98;1.00;;;;;;;31.68;27.65;100216.73;2027207;86;21054;-72
2022/06/18 13:12:38;;;;;;;2.27;1.17;;;;;;;31.60;29.09;100225.66;2024404;86;21581;-70
2022/06/18 13:15:50;;;;;;;3.08;0.88;;;;;;;31.51;29.29;100219.24;1979807;88;21017;-72
2022/06/18 13:19:12;;;;;;;2.60;1.12;;;;;;;31.47;29.22;100210.83;2026437;86;21061;-69
2022/06/18 13:22:14;;;;;;;0.82;0.82;;;;;;;31.51;29.22;100212.39;2024239;86;21055;-70
2022/06/18 13:28:48;;;;;;;0.80;0.70;;;;;;;31.39;29.05;100201.93;2047633;85;21055;-70
2022/06/18 13:32:04;;;;;;;2.25;1.00;;;;;;;31.29;29.35;100195.27;2051941;85;21079;-69
2022/06/18 13:35:26;;;;;;;1.00;0.90;;;;;;;31.31;29.42;100193.84;2054272;85;21063;-68
2022/06/18 13:38:54;;;;;;;2.15;1.35;;;;;;;31.31;29.14;100185.63;2058232;85;21007;-71
2022/06/18 13:42:30;;;;;;;2.58;2.20;;;;;;;31.29;28.89;100181.56;2055460;85;21547;-70
2022/06/18 13:46:02;;;;;;;7.17;1.65;;;;;;;31.29;29.46;100179.63;2040101;86;21113;-72
2022/06/18 13:49:19;;;;;;;4.50;1.22;;;;;;;31.11;29.55;100175.83;2040570;86;21017;-71
2022/06/18 13:52:20;;;;;;;4.00;1.17;;;;;;;31.08;29.72;100170.96;2029778;86;21450;-73
2022/06/18 13:55:39;;;;;;;1.10;1.00;;;;;;;31.13;29.57;100166.77;2041244;86;21593;-72
2022/06/18 13:58:54;;;;;;;3.90;2.00;;;;;;;31.08;29.67;100164.67;2038279;86;21072;-71
2022/06/18 14:02:03;;;;;;;1.98;1.20;;;;;;;31.11;29.99;100155.28;1968016;89;21089;-73
2022/06/18 14:05:12;;;;;;;3.00;1.20;;;;;;;31.11;30.37;100155.28;2028359;86;21069;-73
2022/06/18 14:08:33;;;;;;;1.47;1.20;;;;;;;31.13;29.78;100156.36;2026078;86;21044;-72
2022/06/18 14:11:42;;;;;;;2.10;1.15;;;;;;;31.12;30.55;100158.30;2024009;86;21461;-71
2022/06/18 14:14:48;;;;;;;3.40;1.30;;;;;;;31.08;30.20;100144.94;2026212;86;22467;-72
2022/06/18 14:17:52;;;;;;;1.50;1.40;;;;;;;31.11;30.65;100145.69;2025860;86;21007;-73
2022/06/18 14:21:08;;;;;;;1.98;1.10;;;;;;;31.09;30.38;100149.88;2026580;86;21105;-72
2022/06/18 14:24:11;;;;;;;4.50;1.37;;;;;;;30.99;29.66;100141.28;2022026;87;21082;-70
2022/06/18 14:27:33;;;;;;;3.95;1.50;;;;;;;30.96;30.00;100137.77;2020117;86;21002;-68
2022/06/18 14:30:42;;;;;;;4.30;1.80;;;;;;;30.93;30.04;100128.23;2016234;87;21044;-68
2022/06/18 14:34:15;;;;;;;2.62;1.20;;;;;;;30.78;30.10;100133.97;2024664;86;21088;-72
2022/06/18 14:37:18;;;;;;;2.77;1.30;;;;;;;30.71;30.30;100135.71;2022677;86;21133;-71
2022/06/18 14:40:28;;;;;;;1.15;1.00;;;;;;;30.59;30.56;100120.33;2024270;86;21056;-69
2022/06/18 14:43:45;;;;;;;;;;;;;;;30.56;30.70;100119.00;2028996;86;21587;-73
2022/06/18 14:47:13;;;;;;;2.70;1.47;;;;;;;30.67;30.95;100112.80;2026579;86;20137;-69
2022/06/18 14:50:54;;;;;;;3.33;1.98;;;;;;;30.67;30.86;100111.98;2023105;86;21371;-70
2022/06/18 14:54:29;;;;;;;2.65;1.98;;;;;;;30.62;30.83;100106.03;2028706;86;21049;-75
2022/06/18 14:58:07;;;;;;;2.80;1.60;;;;;;;30.44;30.15;100104.98;2030056;86;20975;-71
2022/06/18 15:01:37;;;;;;;3.33;1.87;;;;;;;30.34;31.00;100103.22;2028492;86;21101;-69
2022/06/18 15:04:56;;;;;;;2.45;1.40;;;;;;;30.24;31.36;100095.72;2016119;87;20990;-69
2022/06/18 15:08:00;;;;;;;4.58;1.50;;;;;;;30.16;31.46;100091.73;2017964;87;21041;-68
2022/06/18 15:11:05;;;;;;;4.10;1.62;;;;;;;30.12;31.21;100094.22;2018040;86;21065;-71
2022/06/18 15:14:08;;;;;;;4.92;1.42;;;;;;;30.09;31.50;100093.45;2030121;86;22191;-69
2022/06/18 15:17:28;;;;;;;2.98;1.60;;;;;;;30.14;31.59;100087.91;2023051;87;20973;-68
2022/06/18 15:20:38;;;;;;;;;;;;;;;30.20;32.11;100082.36;2021893;87;21018;-66
2022/06/18 15:23:43;;;;;;;4.65;1.30;;;;;;;30.11;31.18;100080.30;2019763;86;20534;-68